sensor_id;sensor_type;location;lat;lon;timestamp;pressure;altitude;pressure_sealevel;temperature;humidity
11542;BME280;5827;49.482;7.716;2022-08-19T00:01:36;98495.22;;;21.94;87.48
11542;BME280;5827;49.482;7.716;2022-08-19T00:03:38;98500.03;;;21.97;88.44
11542;BME280;5827;49.482;7.716;2022-08-19T00:05:39;98494.41;;;21.93;88.26
11542;BME280;5827;49.482;7.716;2022-08-19T00:07:43;98510.00;;;21.93;87.82
11542;BME280;5827;49.482;7.716;2022-08-19T00:09:45;98505.50;;;21.97;88.59
11542;BME280;5827;49.482;7.716;2022-08-19T00:11:47;98503.91;;;21.96;88.00
11542;BME280;5827;49.482;7.716;2022-08-19T00:13:49;98497.78;;;21.99;88.70
11542;BME280;5827;49.482;7.716;2022-08-19T00:15:52;98495.56;;;21.92;88.90
11542;BME280;5827;49.482;7.716;2022-08-19T00:17:53;98478.56;;;21.87;91.53
11542;BME280;5827;49.482;7.716;2022-08-19T00:19:55;98480.00;;;21.84;91.86
11542;BME280;5827;49.482;7.716;2022-08-19T00:21:57;98473.13;;;21.78;91.85
11542;BME280;5827;49.482;7.716;2022-08-19T00:23:58;98468.28;;;21.83;92.95
11542;BME280;5827;49.482;7.716;2022-08-19T00:26:00;98476.66;;;21.78;92.83
11542;BME280;5827;49.482;7.716;2022-08-19T00:28:02;98470.75;;;21.76;92.81
11542;BME280;5827;49.482;7.716;2022-08-19T00:30:06;98476.31;;;21.80;92.53
11542;BME280;5827;49.482;7.716;2022-08-19T00:32:09;98477.94;;;21.81;92.49
11542;BME280;5827;49.482;7.716;2022-08-19T00:34:11;98482.28;;;21.82;92.77
11542;BME280;5827;49.482;7.716;2022-08-19T00:36:13;98480.03;;;21.75;93.21
11542;BME280;5827;49.482;7.716;2022-08-19T00:38:15;98484.38;;;21.76;92.80
11542;BME280;5827;49.482;7.716;2022-08-19T00:40:17;98482.63;;;21.72;92.69
11542;BME280;5827;49.482;7.716;2022-08-19T00:42:20;98488.06;;;21.72;93.21
11542;BME280;5827;49.482;7.716;2022-08-19T00:44:26;98486.94;;;21.73;93.49
11542;BME280;5827;49.482;7.716;2022-08-19T00:46:29;98487.09;;;21.68;93.77
11542;BME280;5827;49.482;7.716;2022-08-19T00:48:33;98492.56;;;21.68;92.66
11542;BME280;5827;49.482;7.716;2022-08-19T00:50:35;98488.38;;;21.70;92.76
11542;BME280;5827;49.482;7.716;2022-08-19T00:52:39;98474.09;;;21.73;92.67
11542;BME280;5827;49.482;7.716;2022-08-19T00:54:47;98473.31;;;21.73;91.95
11542;BME280;5827;49.482;7.716;2022-08-19T00:56:49;98469.63;;;21.69;91.43
11542;BME280;5827;49.482;7.716;2022-08-19T00:58:52;98474.56;;;21.75;91.59
11542;BME280;5827;49.482;7.716;2022-08-19T01:00:55;98473.59;;;21.71;91.76
11542;BME280;5827;49.482;7.716;2022-08-19T01:02:57;98479.06;;;21.71;91.49
11542;BME280;5827;49.482;7.716;2022-08-19T01:05:03;98479.41;;;21.70;90.92
11542;BME280;5827;49.482;7.716;2022-08-19T01:07:05;98477.00;;;21.68;91.30
11542;BME280;5827;49.482;7.716;2022-08-19T01:09:09;98477.00;;;21.68;90.75
11542;BME280;5827;49.482;7.716;2022-08-19T01:11:11;98475.88;;;21.69;89.58
11542;BME280;5827;49.482;7.716;2022-08-19T01:13:14;98483.88;;;21.74;89.32
11542;BME280;5827;49.482;7.716;2022-08-19T01:15:23;98484.50;;;21.71;86.56
11542;BME280;5827;49.482;7.716;2022-08-19T01:17:26;98473.31;;;21.64;87.59
11542;BME280;5827;49.482;7.716;2022-08-19T01:19:31;98473.31;;;21.73;86.91
11542;BME280;5827;49.482;7.716;2022-08-19T01:21:42;98476.47;;;21.83;87.10
11542;BME280;5827;49.482;7.716;2022-08-19T01:23:47;98465.59;;;21.75;87.47
11542;BME280;5827;49.482;7.716;2022-08-19T01:25:51;98467.34;;;21.79;87.75
11542;BME280;5827;49.482;7.716;2022-08-19T01:27:54;98462.50;;;21.85;88.31
11542;BME280;5827;49.482;7.716;2022-08-19T01:29:55;98475.84;;;21.87;87.81
11542;BME280;5827;49.482;7.716;2022-08-19T01:31:57;98476.19;;;21.76;88.21
11542;BME280;5827;49.482;7.716;2022-08-19T01:34:01;98479.41;;;21.70;88.97
11542;BME280;5827;49.482;7.716;2022-08-19T01:36:09;98481.16;;;21.74;88.48
11542;BME280;5827;49.482;7.716;2022-08-19T01:38:23;98478.91;;;21.76;88.40
11542;BME280;5827;49.482;7.716;2022-08-19T01:40:29;98476.50;;;21.57;90.31
11542;BME280;5827;49.482;7.716;2022-08-19T01:42:31;98472.81;;;21.62;89.94
11542;BME280;5827;49.482;7.716;2022-08-19T01:44:33;98475.72;;;21.57;90.25
11542;BME280;5827;49.482;7.716;2022-08-19T01:46:36;98475.25;;;21.55;89.72
11542;BME280;5827;49.482;7.716;2022-08-19T01:48:41;98478.44;;;21.57;89.62
11542;BME280;5827;49.482;7.716;2022-08-19T01:50:43;98473.66;;;21.54;89.61
11542;BME280;5827;49.482;7.716;2022-08-19T01:52:44;98466.91;;;21.51;90.55
11542;BME280;5827;49.482;7.716;2022-08-19T01:54:46;98461.47;;;21.51;90.19
11542;BME280;5827;49.482;7.716;2022-08-19T01:56:49;98467.72;;;21.52;90.26
11542;BME280;5827;49.482;7.716;2022-08-19T01:58:54;98465.31;;;21.50;89.83
11542;BME280;5827;49.482;7.716;2022-08-19T02:00:57;98472.88;;;21.45;90.55
11542;BME280;5827;49.482;7.716;2022-08-19T02:02:59;98466.91;;;21.43;91.43
11542;BME280;5827;49.482;7.716;2022-08-19T02:05:01;98474.13;;;21.39;90.68
11542;BME280;5827;49.482;7.716;2022-08-19T02:07:03;98478.63;;;21.35;90.07
11542;BME280;5827;49.482;7.716;2022-08-19T02:09:05;98475.75;;;21.31;89.54
11542;BME280;5827;49.482;7.716;2022-08-19T02:11:07;98480.03;;;21.23;91.85
11542;BME280;5827;49.482;7.716;2022-08-19T02:13:11;98478.13;;;21.24;92.55
11542;BME280;5827;49.482;7.716;2022-08-19T02:15:13;98482.13;;;21.26;92.76
11542;BME280;5827;49.482;7.716;2022-08-19T02:17:15;98476.34;;;21.28;93.14
11542;BME280;5827;49.482;7.716;2022-08-19T02:19:16;98487.59;;;21.26;92.67
11542;BME280;5827;49.482;7.716;2022-08-19T02:21:20;98483.72;;;21.27;92.57
11542;BME280;5827;49.482;7.716;2022-08-19T02:23:21;98484.72;;;21.31;92.24
11542;BME280;5827;49.482;7.716;2022-08-19T02:25:23;98487.72;;;21.30;91.68
11542;BME280;5827;49.482;7.716;2022-08-19T02:27:25;98483.91;;;21.22;91.72
11542;BME280;5827;49.482;7.716;2022-08-19T02:29:28;98490.94;;;21.15;91.88
11542;BME280;5827;49.482;7.716;2022-08-19T02:31:29;98480.66;;;21.12;92.25
11542;BME280;5827;49.482;7.716;2022-08-19T02:33:31;98486.63;;;21.14;91.97
11542;BME280;5827;49.482;7.716;2022-08-19T02:35:32;98478.91;;;21.07;93.52
11542;BME280;5827;49.482;7.716;2022-08-19T02:37:34;98491.56;;;21.12;92.92
11542;BME280;5827;49.482;7.716;2022-08-19T02:39:53;98490.13;;;21.14;92.75
11542;BME280;5827;49.482;7.716;2022-08-19T02:41:55;98488.84;;;21.12;93.15
11542;BME280;5827;49.482;7.716;2022-08-19T02:43:58;98484.22;;;21.12;92.12
11542;BME280;5827;49.482;7.716;2022-08-19T02:46:11;98482.13;;;21.09;92.70
11542;BME280;5827;49.482;7.716;2022-08-19T02:48:13;98488.03;;;21.02;93.33
11542;BME280;5827;49.482;7.716;2022-08-19T02:50:16;98485.31;;;20.94;94.09
11542;BME280;5827;49.482;7.716;2022-08-19T02:52:19;98491.25;;;20.96;94.42
11542;BME280;5827;49.482;7.716;2022-08-19T02:54:20;98491.53;;;20.86;95.17
11542;BME280;5827;49.482;7.716;2022-08-19T02:56:22;98493.00;;;20.92;95.02
11542;BME280;5827;49.482;7.716;2022-08-19T02:58:24;98495.38;;;20.93;94.97
11542;BME280;5827;49.482;7.716;2022-08-19T03:00:26;98505.81;;;20.91;94.88
11542;BME280;5827;49.482;7.716;2022-08-19T03:02:29;98499.72;;;20.86;94.77
11542;BME280;5827;49.482;7.716;2022-08-19T03:04:31;98501.47;;;20.81;95.08
11542;BME280;5827;49.482;7.716;2022-08-19T03:06:35;98490.72;;;20.76;94.82
11542;BME280;5827;49.482;7.716;2022-08-19T03:08:39;98491.69;;;20.80;95.42
11542;BME280;5827;49.482;7.716;2022-08-19T03:10:42;98485.91;;;20.73;96.59
11542;BME280;5827;49.482;7.716;2022-08-19T03:12:45;98482.53;;;20.68;97.51
11542;BME280;5827;49.482;7.716;2022-08-19T03:14:47;98486.84;;;20.69;97.77
11542;BME280;5827;49.482;7.716;2022-08-19T03:16:52;98487.31;;;20.71;97.47
11542;BME280;5827;49.482;7.716;2022-08-19T03:18:56;98478.66;;;20.60;98.30
11542;BME280;5827;49.482;7.716;2022-08-19T03:21:00;98483.97;;;20.65;98.73
11542;BME280;5827;49.482;7.716;2022-08-19T03:23:01;98481.22;;;20.65;98.58
11542;BME280;5827;49.482;7.716;2022-08-19T03:25:03;98486.22;;;20.63;98.23
11542;BME280;5827;49.482;7.716;2022-08-19T03:27:05;98477.88;;;20.60;99.40
11542;BME280;5827;49.482;7.716;2022-08-19T03:29:07;98475.94;;;20.60;99.29
11542;BME280;5827;49.482;7.716;2022-08-19T03:31:12;98485.22;;;20.59;99.13
11542;BME280;5827;49.482;7.716;2022-08-19T03:33:14;98479.59;;;20.55;99.78
11542;BME280;5827;49.482;7.716;2022-08-19T03:35:17;98486.66;;;20.56;99.90
11542;BME280;5827;49.482;7.716;2022-08-19T03:37:20;98486.00;;;20.51;99.90
11542;BME280;5827;49.482;7.716;2022-08-19T03:39:23;98496.53;;;20.44;99.67
11542;BME280;5827;49.482;7.716;2022-08-19T03:41:27;98511.88;;;20.40;99.51
11542;BME280;5827;49.482;7.716;2022-08-19T03:43:30;98510.25;;;20.39;99.61
11542;BME280;5827;49.482;7.716;2022-08-19T03:45:32;98509.31;;;20.35;100.00
11542;BME280;5827;49.482;7.716;2022-08-19T03:47:33;98507.66;;;20.34;100.00
11542;BME280;5827;49.482;7.716;2022-08-19T03:49:35;98515.97;;;20.28;100.00
11542;BME280;5827;49.482;7.716;2022-08-19T03:51:38;98511.66;;;20.27;100.00
11542;BME280;5827;49.482;7.716;2022-08-19T03:53:39;98507.81;;;20.28;100.00
11542;BME280;5827;49.482;7.716;2022-08-19T03:55:41;98511.47;;;20.24;100.00
11542;BME280;5827;49.482;7.716;2022-08-19T03:57:42;98510.00;;;20.18;100.00
11542;BME280;5827;49.482;7.716;2022-08-19T03:59:45;98509.81;;;20.14;100.00
11542;BME280;5827;49.482;7.716;2022-08-19T04:01:46;98510.28;;;20.08;100.00
11542;BME280;5827;49.482;7.716;2022-08-19T04:03:48;98519.44;;;20.12;99.89
11542;BME280;5827;49.482;7.716;2022-08-19T04:05:50;98518.75;;;20.06;99.27
11542;BME280;5827;49.482;7.716;2022-08-19T04:07:53;98513.47;;;20.10;98.84
11542;BME280;5827;49.482;7.716;2022-08-19T04:09:55;98518.00;;;20.14;99.02
11542;BME280;5827;49.482;7.716;2022-08-19T04:11:57;98511.28;;;20.12;99.78
11542;BME280;5827;49.482;7.716;2022-08-19T04:13:59;98515.03;;;20.02;100.00
11542;BME280;5827;49.482;7.716;2022-08-19T04:16:02;98511.16;;;19.94;100.00
11542;BME280;5827;49.482;7.716;2022-08-19T04:18:04;98514.31;;;19.88;100.00
11542;BME280;5827;49.482;7.716;2022-08-19T04:20:08;98514.16;;;19.84;100.00
11542;BME280;5827;49.482;7.716;2022-08-19T04:22:10;98511.06;;;19.77;100.00
11542;BME280;5827;49.482;7.716;2022-08-19T04:24:14;98507.09;;;19.83;100.00
11542;BME280;5827;49.482;7.716;2022-08-19T04:26:17;98509.19;;;19.86;100.00
11542;BME280;5827;49.482;7.716;2022-08-19T04:28:20;98509.06;;;19.91;100.00
11542;BME280;5827;49.482;7.716;2022-08-19T04:30:22;98512.44;;;19.97;100.00
11542;BME280;5827;49.482;7.716;2022-08-19T04:32:23;98505.22;;;19.92;100.00
11542;BME280;5827;49.482;7.716;2022-08-19T04:34:27;98497.19;;;19.87;100.00
11542;BME280;5827;49.482;7.716;2022-08-19T04:36:32;98500.72;;;19.88;100.00
11542;BME280;5827;49.482;7.716;2022-08-19T04:38:34;98487.44;;;19.86;100.00
11542;BME280;5827;49.482;7.716;2022-08-19T04:40:41;98498.97;;;19.92;100.00
11542;BME280;5827;49.482;7.716;2022-08-19T04:43:01;98496.41;;;19.87;100.00
11542;BME280;5827;49.482;7.716;2022-08-19T04:45:03;98505.69;;;19.86;100.00
11542;BME280;5827;49.482;7.716;2022-08-19T04:47:05;98512.28;;;19.93;100.00
11542;BME280;5827;49.482;7.716;2022-08-19T04:49:07;98512.75;;;19.95;100.00
11542;BME280;5827;49.482;7.716;2022-08-19T04:51:11;98516.78;;;19.98;100.00
11542;BME280;5827;49.482;7.716;2022-08-19T04:53:13;98513.09;;;19.94;100.00
11542;BME280;5827;49.482;7.716;2022-08-19T04:55:15;98515.63;;;19.90;100.00
11542;BME280;5827;49.482;7.716;2022-08-19T04:57:19;98518.75;;;19.84;100.00
11542;BME280;5827;49.482;7.716;2022-08-19T04:59:21;98509.31;;;19.81;100.00
11542;BME280;5827;49.482;7.716;2022-08-19T05:01:24;98516.69;;;19.80;100.00
11542;BME280;5827;49.482;7.716;2022-08-19T05:03:26;98512.66;;;19.78;100.00
11542;BME280;5827;49.482;7.716;2022-08-19T05:05:31;98506.22;;;19.74;100.00
11542;BME280;5827;49.482;7.716;2022-08-19T05:07:33;98503.44;;;19.65;100.00
11542;BME280;5827;49.482;7.716;2022-08-19T05:09:35;98515.63;;;19.68;100.00
11542;BME280;5827;49.482;7.716;2022-08-19T05:11:37;98509.25;;;19.72;100.00
11542;BME280;5827;49.482;7.716;2022-08-19T05:13:40;98516.63;;;19.72;100.00
11542;BME280;5827;49.482;7.716;2022-08-19T05:15:43;98519.22;;;19.77;100.00
11542;BME280;5827;49.482;7.716;2022-08-19T05:17:45;98522.00;;;19.86;100.00
11542;BME280;5827;49.482;7.716;2022-08-19T05:20:08;98525.50;;;19.86;100.00
11542;BME280;5827;49.482;7.716;2022-08-19T05:22:27;98520.75;;;19.92;100.00
11542;BME280;5827;49.482;7.716;2022-08-19T05:24:36;98524.13;;;19.97;100.00
11542;BME280;5827;49.482;7.716;2022-08-19T05:26:39;98532.44;;;20.23;100.00
11542;BME280;5827;49.482;7.716;2022-08-19T05:28:42;98534.75;;;20.39;100.00
11542;BME280;5827;49.482;7.716;2022-08-19T05:30:44;98540.94;;;20.53;98.47
11542;BME280;5827;49.482;7.716;2022-08-19T05:32:46;98555.41;;;20.62;95.40
11542;BME280;5827;49.482;7.716;2022-08-19T05:34:47;98554.34;;;20.80;94.52
11542;BME280;5827;49.482;7.716;2022-08-19T05:36:50;98554.50;;;20.93;93.74
11542;BME280;5827;49.482;7.716;2022-08-19T05:38:57;98547.66;;;21.04;93.70
11542;BME280;5827;49.482;7.716;2022-08-19T05:40:58;98539.97;;;21.15;94.80
11542;BME280;5827;49.482;7.716;2022-08-19T05:43:00;98539.53;;;21.21;94.82
11542;BME280;5827;49.482;7.716;2022-08-19T05:45:03;98549.75;;;21.24;93.23
11542;BME280;5827;49.482;7.716;2022-08-19T05:47:06;98547.09;;;21.33;92.25
11542;BME280;5827;49.482;7.716;2022-08-19T05:49:09;98548.06;;;21.46;91.38
11542;BME280;5827;49.482;7.716;2022-08-19T05:51:11;98556.25;;;21.72;90.72
11542;BME280;5827;49.482;7.716;2022-08-19T05:53:13;98564.38;;;21.89;90.63
11542;BME280;5827;49.482;7.716;2022-08-19T05:55:16;98574.50;;;21.97;90.30
11542;BME280;5827;49.482;7.716;2022-08-19T05:57:20;98585.09;;;22.16;89.96
11542;BME280;5827;49.482;7.716;2022-08-19T05:59:22;98594.41;;;22.24;87.47
11542;BME280;5827;49.482;7.716;2022-08-19T06:01:26;98598.16;;;22.49;85.40
11542;BME280;5827;49.482;7.716;2022-08-19T06:03:28;98597.31;;;22.66;84.32
11542;BME280;5827;49.482;7.716;2022-08-19T06:05:30;98609.84;;;22.67;83.29
11542;BME280;5827;49.482;7.716;2022-08-19T06:07:31;98609.44;;;22.86;83.00
11542;BME280;5827;49.482;7.716;2022-08-19T06:09:33;98625.53;;;22.96;79.45
11542;BME280;5827;49.482;7.716;2022-08-19T06:11:38;98623.81;;;23.12;80.39
11542;BME280;5827;49.482;7.716;2022-08-19T06:13:40;98632.41;;;23.31;80.88
11542;BME280;5827;49.482;7.716;2022-08-19T06:15:42;98637.41;;;23.29;78.50
11542;BME280;5827;49.482;7.716;2022-08-19T06:17:45;98639.19;;;23.25;78.54
11542;BME280;5827;49.482;7.716;2022-08-19T06:19:47;98639.50;;;23.53;77.88
11542;BME280;5827;49.482;7.716;2022-08-19T06:21:51;98646.69;;;23.67;76.55
11542;BME280;5827;49.482;7.716;2022-08-19T06:23:54;98652.75;;;23.72;76.71
11542;BME280;5827;49.482;7.716;2022-08-19T06:25:56;98649.44;;;23.58;76.00
11542;BME280;5827;49.482;7.716;2022-08-19T06:27:58;98657.13;;;23.73;76.60
11542;BME280;5827;49.482;7.716;2022-08-19T06:30:00;98653.03;;;23.79;76.75
11542;BME280;5827;49.482;7.716;2022-08-19T06:32:03;98657.50;;;23.84;75.47
11542;BME280;5827;49.482;7.716;2022-08-19T06:34:06;98665.13;;;23.78;74.20
11542;BME280;5827;49.482;7.716;2022-08-19T06:36:08;98665.78;;;23.75;75.32
11542;BME280;5827;49.482;7.716;2022-08-19T06:38:16;98664.44;;;23.81;74.99
11542;BME280;5827;49.482;7.716;2022-08-19T06:40:18;98659.38;;;23.92;76.18
11542;BME280;5827;49.482;7.716;2022-08-19T06:42:20;98654.16;;;23.99;78.19
11542;BME280;5827;49.482;7.716;2022-08-19T06:44:25;98655.31;;;23.48;76.30
11542;BME280;5827;49.482;7.716;2022-08-19T06:46:27;98648.66;;;22.98;78.71
11542;BME280;5827;49.482;7.716;2022-08-19T06:48:29;98648.53;;;23.24;77.82
11542;BME280;5827;49.482;7.716;2022-08-19T06:50:32;98647.31;;;23.43;77.80
11542;BME280;5827;49.482;7.716;2022-08-19T06:52:35;98646.97;;;23.44;77.15
11542;BME280;5827;49.482;7.716;2022-08-19T06:54:36;98649.31;;;23.25;76.89
11542;BME280;5827;49.482;7.716;2022-08-19T06:56:38;98658.34;;;23.25;78.25
11542;BME280;5827;49.482;7.716;2022-08-19T06:58:40;98649.44;;;23.37;79.02
11542;BME280;5827;49.482;7.716;2022-08-19T07:00:42;98647.19;;;23.60;78.95
11542;BME280;5827;49.482;7.716;2022-08-19T07:02:44;98642.03;;;23.58;79.51
11542;BME280;5827;49.482;7.716;2022-08-19T07:04:46;98648.78;;;23.70;77.13
11542;BME280;5827;49.482;7.716;2022-08-19T07:06:49;98656.72;;;23.83;75.25
11542;BME280;5827;49.482;7.716;2022-08-19T07:08:52;98659.16;;;23.76;74.87
11542;BME280;5827;49.482;7.716;2022-08-19T07:10:53;98655.22;;;23.86;75.15
11542;BME280;5827;49.482;7.716;2022-08-19T07:12:55;98657.69;;;24.00;75.68
11542;BME280;5827;49.482;7.716;2022-08-19T07:14:57;98651.22;;;24.04;75.80
11542;BME280;5827;49.482;7.716;2022-08-19T07:16:58;98656.38;;;24.06;75.17
11542;BME280;5827;49.482;7.716;2022-08-19T07:19:00;98660.63;;;24.16;74.56
11542;BME280;5827;49.482;7.716;2022-08-19T07:21:03;98654.28;;;24.03;74.87
11542;BME280;5827;49.482;7.716;2022-08-19T07:23:07;98653.94;;;24.04;75.96
11542;BME280;5827;49.482;7.716;2022-08-19T07:25:09;98645.16;;;23.99;75.43
11542;BME280;5827;49.482;7.716;2022-08-19T07:27:14;98652.50;;;24.07;75.26
11542;BME280;5827;49.482;7.716;2022-08-19T07:29:17;98655.19;;;24.28;74.93
11542;BME280;5827;49.482;7.716;2022-08-19T07:31:21;98664.09;;;24.25;73.51
11542;BME280;5827;49.482;7.716;2022-08-19T07:33:23;98672.78;;;24.48;72.40
11542;BME280;5827;49.482;7.716;2022-08-19T07:35:27;98672.34;;;24.58;71.74
11542;BME280;5827;49.482;7.716;2022-08-19T07:37:28;98673.34;;;24.99;72.56
11542;BME280;5827;49.482;7.716;2022-08-19T07:39:34;98664.06;;;24.91;72.25
11542;BME280;5827;49.482;7.716;2022-08-19T07:41:37;98670.09;;;24.72;72.62
11542;BME280;5827;49.482;7.716;2022-08-19T07:43:40;98667.03;;;24.86;71.90
11542;BME280;5827;49.482;7.716;2022-08-19T07:45:43;98668.59;;;25.20;70.65
11542;BME280;5827;49.482;7.716;2022-08-19T07:47:44;98668.13;;;25.30;70.63
11542;BME280;5827;49.482;7.716;2022-08-19T07:49:46;98666.03;;;25.52;70.45
11542;BME280;5827;49.482;7.716;2022-08-19T07:51:52;98674.13;;;25.73;68.86
11542;BME280;5827;49.482;7.716;2022-08-19T07:53:53;98676.44;;;25.71;69.13
11542;BME280;5827;49.482;7.716;2022-08-19T07:55:57;98672.06;;;25.94;68.35
11542;BME280;5827;49.482;7.716;2022-08-19T07:58:04;98681.38;;;25.77;67.24
11542;BME280;5827;49.482;7.716;2022-08-19T08:00:07;98682.91;;;26.03;67.09
11542;BME280;5827;49.482;7.716;2022-08-19T08:02:08;98683.88;;;26.23;67.49
11542;BME280;5827;49.482;7.716;2022-08-19T08:04:11;98687.00;;;26.37;66.62
11542;BME280;5827;49.482;7.716;2022-08-19T08:06:30;98685.81;;;26.78;65.32
11542;BME280;5827;49.482;7.716;2022-08-19T08:08:49;98685.94;;;26.54;65.41
11542;BME280;5827;49.482;7.716;2022-08-19T08:11:10;98685.97;;;26.42;66.94
11542;BME280;5827;49.482;7.716;2022-08-19T08:13:12;98679.28;;;26.27;66.09
11542;BME280;5827;49.482;7.716;2022-08-19T08:15:15;98678.94;;;26.56;65.95
11542;BME280;5827;49.482;7.716;2022-08-19T08:17:20;98688.84;;;26.45;64.20
11542;BME280;5827;49.482;7.716;2022-08-19T08:19:23;98690.28;;;26.55;65.05
11542;BME280;5827;49.482;7.716;2022-08-19T08:21:26;98690.22;;;26.67;63.59
11542;BME280;5827;49.482;7.716;2022-08-19T08:23:27;98683.25;;;26.29;65.16
11542;BME280;5827;49.482;7.716;2022-08-19T08:25:30;98690.72;;;26.57;64.54
11542;BME280;5827;49.482;7.716;2022-08-19T08:27:37;98696.25;;;26.73;64.34
11542;BME280;5827;49.482;7.716;2022-08-19T08:29:39;98700.06;;;26.84;63.97
11542;BME280;5827;49.482;7.716;2022-08-19T08:31:43;98696.81;;;26.22;62.96
11542;BME280;5827;49.482;7.716;2022-08-19T08:33:46;98696.63;;;26.43;63.48
11542;BME280;5827;49.482;7.716;2022-08-19T08:35:48;98696.78;;;26.63;63.71
11542;BME280;5827;49.482;7.716;2022-08-19T08:37:52;98696.84;;;26.38;64.85
11542;BME280;5827;49.482;7.716;2022-08-19T08:39:54;98696.47;;;26.52;64.96
11542;BME280;5827;49.482;7.716;2022-08-19T08:41:59;98709.47;;;26.83;63.28
11542;BME280;5827;49.482;7.716;2022-08-19T08:44:04;98704.34;;;26.81;61.86
11542;BME280;5827;49.482;7.716;2022-08-19T08:46:10;98702.81;;;26.68;62.75
11542;BME280;5827;49.482;7.716;2022-08-19T08:48:18;98706.53;;;26.20;62.04
11542;BME280;5827;49.482;7.716;2022-08-19T08:50:26;98701.16;;;26.51;61.69
11542;BME280;5827;49.482;7.716;2022-08-19T08:52:33;98707.63;;;26.43;63.04
11542;BME280;5827;49.482;7.716;2022-08-19T08:54:41;98704.78;;;26.27;62.10
11542;BME280;5827;49.482;7.716;2022-08-19T08:56:45;98702.97;;;26.59;62.38
11542;BME280;5827;49.482;7.716;2022-08-19T08:58:53;98700.81;;;26.81;62.08
11542;BME280;5827;49.482;7.716;2022-08-19T09:00:58;98707.84;;;26.66;61.81
11542;BME280;5827;49.482;7.716;2022-08-19T09:03:01;98703.41;;;26.61;62.11
11542;BME280;5827;49.482;7.716;2022-08-19T09:05:04;98697.38;;;27.00;62.86
11542;BME280;5827;49.482;7.716;2022-08-19T09:07:25;98704.72;;;26.96;60.69
11542;BME280;5827;49.482;7.716;2022-08-19T09:09:34;98708.50;;;26.75;62.81
11542;BME280;5827;49.482;7.716;2022-08-19T09:11:45;98710.16;;;26.36;62.93
11542;BME280;5827;49.482;7.716;2022-08-19T09:14:06;98710.91;;;26.21;62.01
11542;BME280;5827;49.482;7.716;2022-08-19T09:16:15;98703.78;;;26.60;61.79
11542;BME280;5827;49.482;7.716;2022-08-19T09:18:17;98714.31;;;26.58;60.79
11542;BME280;5827;49.482;7.716;2022-08-19T09:20:20;98716.75;;;26.07;60.23
11542;BME280;5827;49.482;7.716;2022-08-19T09:22:23;98710.81;;;26.05;60.67
11542;BME280;5827;49.482;7.716;2022-08-19T09:24:27;98705.44;;;26.36;60.62
11542;BME280;5827;49.482;7.716;2022-08-19T09:26:29;98714.59;;;26.41;60.59
11542;BME280;5827;49.482;7.716;2022-08-19T09:28:31;98715.84;;;26.43;60.01
11542;BME280;5827;49.482;7.716;2022-08-19T09:30:38;98723.00;;;26.60;59.40
11542;BME280;5827;49.482;7.716;2022-08-19T09:32:42;98716.69;;;26.44;59.67
11542;BME280;5827;49.482;7.716;2022-08-19T09:34:44;98711.91;;;26.56;59.75
11542;BME280;5827;49.482;7.716;2022-08-19T09:36:45;98708.03;;;26.17;59.23
11542;BME280;5827;49.482;7.716;2022-08-19T09:38:47;98718.13;;;26.41;57.56
11542;BME280;5827;49.482;7.716;2022-08-19T09:40:48;98719.72;;;26.42;56.05
11542;BME280;5827;49.482;7.716;2022-08-19T09:42:50;98712.41;;;26.46;56.58
11542;BME280;5827;49.482;7.716;2022-08-19T09:44:52;98715.03;;;26.71;56.38
11542;BME280;5827;49.482;7.716;2022-08-19T09:46:54;98713.44;;;26.70;55.91
11542;BME280;5827;49.482;7.716;2022-08-19T09:48:59;98715.44;;;26.85;56.15
11542;BME280;5827;49.482;7.716;2022-08-19T09:51:06;98712.28;;;26.71;55.86
11542;BME280;5827;49.482;7.716;2022-08-19T09:53:08;98707.63;;;26.71;56.31
11542;BME280;5827;49.482;7.716;2022-08-19T09:55:10;98706.09;;;26.74;55.85
11542;BME280;5827;49.482;7.716;2022-08-19T09:57:12;98699.91;;;26.93;56.28
11542;BME280;5827;49.482;7.716;2022-08-19T09:59:14;98705.09;;;27.10;56.61
11542;BME280;5827;49.482;7.716;2022-08-19T10:01:18;98708.59;;;26.79;54.60
11542;BME280;5827;49.482;7.716;2022-08-19T10:03:19;98701.56;;;27.09;55.40
11542;BME280;5827;49.482;7.716;2022-08-19T10:05:22;98709.59;;;27.02;54.75
11542;BME280;5827;49.482;7.716;2022-08-19T10:07:41;98694.19;;;27.29;55.73
11542;BME280;5827;49.482;7.716;2022-08-19T10:09:43;98701.22;;;27.27;53.69
11542;BME280;5827;49.482;7.716;2022-08-19T10:11:45;98700.47;;;27.46;53.53
11542;BME280;5827;49.482;7.716;2022-08-19T10:13:48;98700.75;;;27.72;53.15
11542;BME280;5827;49.482;7.716;2022-08-19T10:15:50;98699.03;;;27.68;52.74
11542;BME280;5827;49.482;7.716;2022-08-19T10:17:52;98704.72;;;27.75;52.49
11542;BME280;5827;49.482;7.716;2022-08-19T10:19:54;98701.03;;;27.71;51.93
11542;BME280;5827;49.482;7.716;2022-08-19T10:21:56;98707.22;;;27.99;51.55
11542;BME280;5827;49.482;7.716;2022-08-19T10:23:59;98703.63;;;28.15;51.51
11542;BME280;5827;49.482;7.716;2022-08-19T10:26:02;98710.50;;;28.24;50.39
11542;BME280;5827;49.482;7.716;2022-08-19T10:28:05;98717.75;;;28.32;50.73
11542;BME280;5827;49.482;7.716;2022-08-19T10:30:08;98698.22;;;28.38;50.89
11542;BME280;5827;49.482;7.716;2022-08-19T10:32:10;98707.28;;;28.03;51.05
11542;BME280;5827;49.482;7.716;2022-08-19T10:34:12;98701.88;;;28.45;49.98
11542;BME280;5827;49.482;7.716;2022-08-19T10:36:16;98700.19;;;28.79;49.89
11542;BME280;5827;49.482;7.716;2022-08-19T10:38:19;98703.97;;;28.71;47.46
11542;BME280;5827;49.482;7.716;2022-08-19T10:40:22;98702.75;;;28.49;46.67
11542;BME280;5827;49.482;7.716;2022-08-19T10:42:23;98703.31;;;28.78;46.19
11542;BME280;5827;49.482;7.716;2022-08-19T10:44:25;98705.25;;;28.97;45.84
11542;BME280;5827;49.482;7.716;2022-08-19T10:46:36;98699.75;;;28.77;46.54
11542;BME280;5827;49.482;7.716;2022-08-19T10:48:37;98690.00;;;28.60;46.55
11542;BME280;5827;49.482;7.716;2022-08-19T10:50:39;98699.66;;;28.51;46.50
11542;BME280;5827;49.482;7.716;2022-08-19T10:52:57;98699.63;;;28.31;45.38
11542;BME280;5827;49.482;7.716;2022-08-19T10:55:06;98691.25;;;27.89;46.52
11542;BME280;5827;49.482;7.716;2022-08-19T10:57:26;98692.59;;;28.53;45.92
11542;BME280;5827;49.482;7.716;2022-08-19T10:59:31;98701.03;;;28.60;45.13
11542;BME280;5827;49.482;7.716;2022-08-19T11:01:34;98691.97;;;28.83;45.50
11542;BME280;5827;49.482;7.716;2022-08-19T11:03:36;98699.84;;;29.27;43.75